createdAt,value
2017-05-24T00:00:49.173Z,22.10
2017-05-24T00:01:54.804Z,22.08
2017-05-24T00:03:06.960Z,22.13
2017-05-24T00:05:42.326Z,22.20
2017-05-24T00:06:49.131Z,22.11
2017-05-24T00:07:53.316Z,22.10
2017-05-24T00:08:56.119Z,22.15
2017-05-24T00:09:59.069Z,21.99
2017-05-24T00:11:02.019Z,22.06
2017-05-24T00:12:04.382Z,22.07
2017-05-24T00:13:06.770Z,22.07
2017-05-24T00:14:09.130Z,22.00
2017-05-24T00:15:11.501Z,21.99
2017-05-24T00:16:14.706Z,22.02
2017-05-24T00:17:17.094Z,21.95
2017-05-24T00:18:19.458Z,21.92
2017-05-24T00:19:21.815Z,21.95
2017-05-24T00:20:24.188Z,21.89
2017-05-24T00:21:27.257Z,21.95
2017-05-24T00:22:29.642Z,21.89
2017-05-24T00:23:32.013Z,21.85
2017-05-24T00:24:34.370Z,21.85
2017-05-24T00:25:36.753Z,21.87
2017-05-24T00:26:41.612Z,21.83
2017-05-24T00:27:43.984Z,21.82
2017-05-24T00:28:46.346Z,21.89
2017-05-24T00:29:48.710Z,21.91
2017-05-24T00:30:51.075Z,21.91
2017-05-24T00:31:55.980Z,21.91
2017-05-24T00:32:58.341Z,21.89
2017-05-24T00:34:00.719Z,21.87
2017-05-24T00:35:03.070Z,21.89
2017-05-24T00:36:05.434Z,21.85
2017-05-24T00:37:08.518Z,21.89
2017-05-24T00:38:11.094Z,21.91
2017-05-24T00:39:13.456Z,21.87
2017-05-24T00:40:15.843Z,21.89
2017-05-24T00:41:18.236Z,21.92
2017-05-24T00:42:21.216Z,21.82
2017-05-24T00:43:23.589Z,21.89
2017-05-24T00:44:25.965Z,21.89
2017-05-24T00:45:28.353Z,21.80
2017-05-24T00:46:30.715Z,21.92
2017-05-24T00:47:33.781Z,21.99
2017-05-24T00:48:36.163Z,21.92
2017-05-24T00:49:38.534Z,21.87
2017-05-24T00:50:40.896Z,21.91
2017-05-24T00:51:43.460Z,21.89
2017-05-24T00:52:46.455Z,21.80
2017-05-24T00:53:48.846Z,21.76
2017-05-24T00:54:51.232Z,21.87
2017-05-24T00:55:53.620Z,21.93
2017-05-24T00:56:55.992Z,21.91
2017-05-24T00:58:00.204Z,21.82
2017-05-24T00:59:02.578Z,21.85
2017-05-24T01:00:04.945Z,21.96
2017-05-24T01:01:07.302Z,21.98
2017-05-24T01:02:09.666Z,21.92
2017-05-24T01:03:12.720Z,21.91
2017-05-24T01:04:15.110Z,21.73
2017-05-24T01:05:17.492Z,21.89
2017-05-24T01:06:19.844Z,21.91
2017-05-24T01:07:22.223Z,21.79
2017-05-24T01:08:25.179Z,21.73
2017-05-24T01:09:27.569Z,21.83
2017-05-24T01:10:29.950Z,21.80
2017-05-24T01:11:32.325Z,21.79
2017-05-24T01:12:34.725Z,21.80
2017-05-24T01:13:37.789Z,21.82
2017-05-24T01:14:40.373Z,21.75
2017-05-24T01:15:42.955Z,21.75
2017-05-24T01:16:45.327Z,21.82
2017-05-24T01:17:47.711Z,21.80
2017-05-24T01:18:50.773Z,21.80
2017-05-24T01:19:53.135Z,21.85
2017-05-24T01:20:55.515Z,21.80
2017-05-24T01:21:57.878Z,21.77
2017-05-24T01:23:00.251Z,21.77
2017-05-24T01:24:03.282Z,21.85
2017-05-24T01:25:05.673Z,21.77
2017-05-24T01:26:08.036Z,21.87
2017-05-24T01:27:10.407Z,21.82
2017-05-24T01:28:12.766Z,21.75
2017-05-24T01:29:15.737Z,21.87
2017-05-24T01:30:18.120Z,21.73
2017-05-24T01:31:20.483Z,21.73
2017-05-24T01:32:22.846Z,21.72
2017-05-24T01:33:25.208Z,21.72
2017-05-24T01:34:28.269Z,21.80
2017-05-24T01:35:30.851Z,21.79
2017-05-24T01:36:33.243Z,21.72
2017-05-24T01:37:35.633Z,21.73
2017-05-24T01:38:37.993Z,21.72
2017-05-24T01:39:42.893Z,21.72
2017-05-24T01:40:45.276Z,21.72
2017-05-24T01:41:47.640Z,21.75
2017-05-24T01:42:49.997Z,21.83
2017-05-24T01:43:52.385Z,21.80
2017-05-24T01:44:55.362Z,21.80
2017-05-24T01:45:57.952Z,21.77
2017-05-24T01:47:00.322Z,21.80
2017-05-24T01:48:02.716Z,21.87
2017-05-24T01:49:05.073Z,21.85
2017-05-24T01:50:08.077Z,21.80
2017-05-24T01:51:10.442Z,21.79
2017-05-24T01:52:12.803Z,21.77
2017-05-24T01:53:15.159Z,21.79
2017-05-24T01:54:17.535Z,21.87
2017-05-24T01:55:20.600Z,21.76
2017-05-24T01:56:22.987Z,21.85
2017-05-24T01:57:25.339Z,21.80
2017-05-24T01:58:27.725Z,21.80
2017-05-24T01:59:30.291Z,21.85
2017-05-24T02:00:33.249Z,21.87
2017-05-24T02:01:35.613Z,21.87
2017-05-24T02:02:37.981Z,21.85
2017-05-24T02:03:40.366Z,21.79
2017-05-24T02:04:42.722Z,21.73
2017-05-24T02:05:47.602Z,21.77
2017-05-24T02:06:50.190Z,21.77
2017-05-24T02:07:52.539Z,21.85
2017-05-24T02:08:54.920Z,21.77
2017-05-24T02:09:57.316Z,21.85
2017-05-24T02:11:00.414Z,21.83
2017-05-24T02:12:02.770Z,21.85
2017-05-24T02:13:05.142Z,21.85
2017-05-24T02:14:07.537Z,21.83
2017-05-24T02:15:10.663Z,21.79
2017-05-24T02:16:13.636Z,21.79
2017-05-24T02:17:16.027Z,21.87
2017-05-24T02:18:18.911Z,21.82
2017-05-24T02:19:21.313Z,21.85
2017-05-24T02:20:23.668Z,21.75
2017-05-24T02:21:26.648Z,21.75
2017-05-24T02:22:29.006Z,21.73
2017-05-24T02:23:31.590Z,21.83
2017-05-24T02:24:34.177Z,21.75
2017-05-24T02:25:36.749Z,21.76
2017-05-24T02:26:39.728Z,21.75
2017-05-24T02:27:42.702Z,21.77
2017-05-24T02:28:45.472Z,21.67
2017-05-24T02:29:48.047Z,21.70
2017-05-24T02:30:50.958Z,21.73
2017-05-24T02:31:54.076Z,21.70
2017-05-24T02:32:58.999Z,21.69
2017-05-24T02:34:01.829Z,21.73
2017-05-24T02:35:04.804Z,21.72
2017-05-24T02:36:07.107Z,21.67
2017-05-24T02:37:10.377Z,21.66
2017-05-24T02:38:13.192Z,21.73
2017-05-24T02:39:16.081Z,21.62
2017-05-24T02:40:18.956Z,21.69
2017-05-24T02:41:21.396Z,21.67
2017-05-24T02:42:24.328Z,21.72
2017-05-24T02:43:26.685Z,21.66
2017-05-24T02:44:29.069Z,21.67
2017-05-24T02:45:31.421Z,21.64
2017-05-24T02:46:33.778Z,21.73
2017-05-24T02:47:36.924Z,21.69
2017-05-24T02:48:39.840Z,21.73
2017-05-24T02:49:42.708Z,21.72
2017-05-24T02:50:45.576Z,21.70
2017-05-24T02:51:47.938Z,21.72
2017-05-24T02:52:51.028Z,21.67
2017-05-24T02:53:53.393Z,21.73
2017-05-24T02:54:55.955Z,21.72
2017-05-24T02:55:58.889Z,21.67
2017-05-24T02:57:01.256Z,21.66
2017-05-24T02:58:04.339Z,21.73
2017-05-24T02:59:06.728Z,21.69
2017-05-24T03:00:09.099Z,21.67
2017-05-24T03:01:11.464Z,21.69
2017-05-24T03:02:13.822Z,21.66
2017-05-24T03:03:16.778Z,21.76
2017-05-24T03:04:19.154Z,21.76
2017-05-24T03:05:21.544Z,21.77
2017-05-24T03:06:23.919Z,21.77
2017-05-24T03:07:26.854Z,21.76
2017-05-24T03:08:29.835Z,21.72
2017-05-24T03:09:32.218Z,21.69
2017-05-24T03:10:34.837Z,21.72
2017-05-24T03:11:37.250Z,21.66
2017-05-24T03:12:40.164Z,21.70
2017-05-24T03:13:43.253Z,21.66
2017-05-24T03:14:45.505Z,21.79
2017-05-24T03:15:47.889Z,21.72
2017-05-24T03:16:50.449Z,21.73
2017-05-24T03:17:52.815Z,21.72
2017-05-24T03:18:55.881Z,21.73
2017-05-24T03:19:58.267Z,21.76
2017-05-24T03:21:00.628Z,21.79
2017-05-24T03:22:02.989Z,21.75
2017-05-24T03:23:05.347Z,21.82
2017-05-24T03:24:08.309Z,21.77
2017-05-24T03:25:10.704Z,21.87
2017-05-24T03:26:13.077Z,21.85
2017-05-24T03:27:15.665Z,21.77
2017-05-24T03:28:18.022Z,21.77
2017-05-24T03:29:21.086Z,21.82
2017-05-24T03:30:23.445Z,21.79
2017-05-24T03:31:25.839Z,21.80
2017-05-24T03:32:28.427Z,21.79
2017-05-24T03:33:30.826Z,21.77
2017-05-24T03:34:33.809Z,21.85
2017-05-24T03:35:36.187Z,21.80
2017-05-24T03:36:38.550Z,21.82
2017-05-24T03:37:41.123Z,21.83
2017-05-24T03:38:43.498Z,21.82
2017-05-24T03:39:48.458Z,21.82
2017-05-24T03:40:50.827Z,21.80
2017-05-24T03:41:53.165Z,21.70
2017-05-24T03:42:55.572Z,21.77
2017-05-24T03:43:57.946Z,21.73
2017-05-24T03:45:00.913Z,21.69
2017-05-24T03:46:03.259Z,21.75
2017-05-24T03:47:05.617Z,21.69
2017-05-24T03:48:07.976Z,21.70
2017-05-24T03:49:10.355Z,21.75
2017-05-24T03:50:13.403Z,21.67
2017-05-24T03:51:15.760Z,21.70
2017-05-24T03:52:18.120Z,21.66
2017-05-24T03:53:20.474Z,21.67
2017-05-24T03:54:22.883Z,21.70
2017-05-24T03:55:25.764Z,21.67
2017-05-24T03:56:28.123Z,21.76
2017-05-24T03:57:30.714Z,21.72
2017-05-24T03:58:33.073Z,21.67
2017-05-24T03:59:35.443Z,21.66
2017-05-24T04:00:38.521Z,21.70
2017-05-24T04:01:40.918Z,21.67
2017-05-24T04:02:44.037Z,21.73
2017-05-24T04:03:46.493Z,21.64
2017-05-24T04:04:48.864Z,21.72
2017-05-24T04:06:56.256Z,21.62
2017-05-24T04:07:59.165Z,21.70
2017-05-24T04:09:02.032Z,21.70
2017-05-24T04:10:04.397Z,21.69
2017-05-24T04:11:09.255Z,21.67
2017-05-24T04:12:11.606Z,21.62
2017-05-24T04:13:14.177Z,21.66
2017-05-24T04:14:17.114Z,21.69
2017-05-24T04:15:19.677Z,21.69
2017-05-24T04:16:22.665Z,21.64
2017-05-24T04:17:25.016Z,21.70
2017-05-24T04:18:27.872Z,21.70
2017-05-24T04:19:30.826Z,21.70
2017-05-24T04:20:33.085Z,21.69
2017-05-24T04:21:37.952Z,21.72
2017-05-24T04:22:40.823Z,21.72
2017-05-24T04:23:43.682Z,21.69
2017-05-24T04:24:46.072Z,21.67
2017-05-24T04:25:48.928Z,21.70
2017-05-24T04:26:53.089Z,21.72
2017-05-24T04:27:55.953Z,21.67
2017-05-24T04:28:58.318Z,21.69
2017-05-24T04:30:00.678Z,21.73
2017-05-24T04:31:03.030Z,21.66
2017-05-24T04:32:05.990Z,21.72
2017-05-24T04:33:08.360Z,21.66
2017-05-24T04:34:10.712Z,21.72
2017-05-24T04:35:13.077Z,21.67
2017-05-24T04:36:15.935Z,21.72
2017-05-24T04:37:18.905Z,21.64
2017-05-24T04:38:21.286Z,21.67
2017-05-24T04:39:23.649Z,21.62
2017-05-24T04:40:26.008Z,21.70
2017-05-24T04:41:28.366Z,21.69
2017-05-24T04:42:31.419Z,21.70
2017-05-24T04:43:33.788Z,21.66
2017-05-24T04:44:36.154Z,21.72
2017-05-24T04:45:38.522Z,21.77
2017-05-24T04:46:40.879Z,21.73
2017-05-24T04:47:43.944Z,21.79
2017-05-24T04:48:46.326Z,21.73
2017-05-24T04:49:48.676Z,21.75
2017-05-24T04:50:51.033Z,21.73
2017-05-24T04:51:53.393Z,21.73
2017-05-24T04:52:56.471Z,21.72
2017-05-24T04:53:58.839Z,21.73
2017-05-24T04:55:01.197Z,21.69
2017-05-24T04:56:03.563Z,21.72
2017-05-24T04:57:05.918Z,21.73
2017-05-24T04:58:08.875Z,21.64
2017-05-24T04:59:11.234Z,21.64
2017-05-24T05:00:13.807Z,21.66
2017-05-24T05:01:16.183Z,21.72
2017-05-24T05:02:18.544Z,21.75
2017-05-24T05:03:21.533Z,21.75
2017-05-24T05:04:23.912Z,21.72
2017-05-24T05:05:26.303Z,21.75
2017-05-24T05:06:28.669Z,21.67
2017-05-24T05:07:31.063Z,21.75
2017-05-24T05:08:34.025Z,21.70
2017-05-24T05:09:36.412Z,21.62
2017-05-24T05:10:39.002Z,21.62
2017-05-24T05:11:41.405Z,21.62
2017-05-24T05:12:43.795Z,21.73
2017-05-24T05:13:46.862Z,21.69
2017-05-24T05:14:49.228Z,21.70
2017-05-24T05:15:51.610Z,21.67
2017-05-24T05:16:53.973Z,21.72
2017-05-24T05:17:56.332Z,21.72
2017-05-24T05:18:59.416Z,21.72
2017-05-24T05:20:01.788Z,21.66
2017-05-24T05:21:04.147Z,21.69
2017-05-24T05:22:06.510Z,21.69
2017-05-24T05:23:08.876Z,21.66
2017-05-24T05:24:11.919Z,21.67
2017-05-24T05:25:14.218Z,21.69
2017-05-24T05:26:16.592Z,21.67
2017-05-24T05:27:18.954Z,21.67
2017-05-24T05:28:21.327Z,21.58
2017-05-24T05:29:24.304Z,21.70
2017-05-24T05:30:26.662Z,21.67
2017-05-24T05:31:29.020Z,21.76
2017-05-24T05:32:31.391Z,21.72
2017-05-24T05:33:33.752Z,21.62
2017-05-24T05:34:36.710Z,21.73
2017-05-24T05:35:39.067Z,21.67
2017-05-24T05:36:41.429Z,21.73
2017-05-24T05:37:43.791Z,21.67
2017-05-24T05:38:46.143Z,21.75
2017-05-24T05:39:49.053Z,21.67
2017-05-24T05:40:51.426Z,21.75
2017-05-24T05:41:53.785Z,21.70
2017-05-24T05:42:56.144Z,21.75
2017-05-24T05:43:58.697Z,21.70
2017-05-24T05:45:01.782Z,21.67
2017-05-24T05:46:04.140Z,21.69
2017-05-24T05:47:06.508Z,21.66
2017-05-24T05:48:08.869Z,21.69
2017-05-24T05:49:11.229Z,21.72
2017-05-24T05:50:14.191Z,21.73
2017-05-24T05:51:16.553Z,21.72
2017-05-24T05:52:18.918Z,21.76
2017-05-24T05:53:21.279Z,21.73
2017-05-24T05:54:23.637Z,21.80
2017-05-24T05:55:26.545Z,21.75
2017-05-24T05:56:28.901Z,21.76
2017-05-24T05:57:31.256Z,21.82
2017-05-24T05:58:33.627Z,21.83
2017-05-24T05:59:35.997Z,21.79
2017-05-24T06:00:38.956Z,21.80
2017-05-24T06:01:41.388Z,21.75
2017-05-24T06:02:43.684Z,21.76
2017-05-24T06:03:46.046Z,21.79
2017-05-24T06:04:48.406Z,21.76
2017-05-24T06:05:51.363Z,21.85
2017-05-24T06:06:53.720Z,21.79
2017-05-24T06:07:56.081Z,21.77
2017-05-24T06:08:58.446Z,21.85
2017-05-24T06:10:00.793Z,21.79
2017-05-24T06:11:03.766Z,21.77
2017-05-24T06:12:06.118Z,21.77
2017-05-24T06:13:08.478Z,21.89
2017-05-24T06:14:10.843Z,21.75
2017-05-24T06:15:13.198Z,21.80
2017-05-24T06:16:16.158Z,21.83
2017-05-24T06:17:18.518Z,21.89
2017-05-24T06:18:20.875Z,21.93
2017-05-24T06:19:23.238Z,21.80
2017-05-24T06:20:25.592Z,21.80
2017-05-24T06:21:28.749Z,21.87
2017-05-24T06:22:31.110Z,21.87
2017-05-24T06:23:33.468Z,21.93
2017-05-24T06:24:35.825Z,21.92
2017-05-24T06:25:38.182Z,21.87
2017-05-24T06:26:41.241Z,21.89
2017-05-24T06:27:43.604Z,21.83
2017-05-24T06:28:45.960Z,21.89
2017-05-24T06:29:48.322Z,21.85
2017-05-24T06:30:50.681Z,21.87
2017-05-24T06:31:53.741Z,21.87
2017-05-24T06:32:56.102Z,21.93
2017-05-24T06:33:58.452Z,21.82
2017-05-24T06:35:00.818Z,21.85
2017-05-24T06:36:03.178Z,21.83
2017-05-24T06:37:06.085Z,21.83
2017-05-24T06:38:08.439Z,21.85
2017-05-24T06:39:10.802Z,21.92
2017-05-24T06:40:13.163Z,21.83
2017-05-24T06:41:15.525Z,21.83
2017-05-24T06:42:18.591Z,21.82
2017-05-24T06:43:20.948Z,21.85
2017-05-24T06:44:23.307Z,21.89
2017-05-24T06:45:25.670Z,21.89
2017-05-24T06:46:28.020Z,21.91
2017-05-24T06:47:31.081Z,21.91
2017-05-24T06:48:33.447Z,21.91
2017-05-24T06:49:35.809Z,21.89
2017-05-24T06:50:38.173Z,21.85
2017-05-24T06:51:40.532Z,21.93
2017-05-24T06:52:43.590Z,21.92
2017-05-24T06:53:45.951Z,21.89
2017-05-24T06:54:48.316Z,21.96
2017-05-24T06:55:50.680Z,21.85
2017-05-24T06:56:53.035Z,21.85
2017-05-24T06:57:56.091Z,21.85
2017-05-24T06:58:58.458Z,21.91
2017-05-24T07:00:00.816Z,21.93
2017-05-24T07:01:03.222Z,21.95
2017-05-24T07:02:05.544Z,21.95
2017-05-24T07:03:08.595Z,21.91
2017-05-24T07:04:11.152Z,21.89
2017-05-24T07:05:13.520Z,21.83
2017-05-24T07:06:15.880Z,21.85
2017-05-24T07:07:18.443Z,21.89
2017-05-24T07:08:21.407Z,21.95
2017-05-24T07:09:23.764Z,21.85
2017-05-24T07:10:26.118Z,21.83
2017-05-24T07:11:28.482Z,21.91
2017-05-24T07:12:30.846Z,21.85
2017-05-24T07:13:33.809Z,21.89
2017-05-24T07:14:36.164Z,22.00
2017-05-24T07:15:38.725Z,21.91
2017-05-24T07:16:41.084Z,21.89
2017-05-24T07:17:43.461Z,21.95
2017-05-24T07:18:46.515Z,21.87
2017-05-24T07:19:48.867Z,21.93
2017-05-24T07:20:51.224Z,21.95
2017-05-24T07:21:53.574Z,21.95
2017-05-24T07:22:55.934Z,21.95
2017-05-24T07:23:58.991Z,21.93
2017-05-24T07:25:01.353Z,21.89
2017-05-24T07:26:03.711Z,21.95
2017-05-24T07:27:06.077Z,21.92
2017-05-24T07:28:08.442Z,21.91
2017-05-24T07:29:11.453Z,21.95
2017-05-24T07:30:13.816Z,21.92
2017-05-24T07:31:16.164Z,21.95
2017-05-24T07:32:18.526Z,21.95
2017-05-24T07:33:20.885Z,21.93
2017-05-24T07:34:23.944Z,21.89
2017-05-24T07:35:26.307Z,21.83
2017-05-24T07:36:28.664Z,21.89
2017-05-24T07:37:31.019Z,21.93
2017-05-24T07:38:33.380Z,21.82
2017-05-24T07:39:36.343Z,21.91
2017-05-24T07:40:38.701Z,21.92
2017-05-24T07:41:41.062Z,21.91
2017-05-24T07:42:43.418Z,21.95
2017-05-24T07:43:45.783Z,21.85
2017-05-24T07:44:48.841Z,21.83
2017-05-24T07:45:51.192Z,21.89
2017-05-24T07:46:53.550Z,21.82
2017-05-24T07:47:55.917Z,21.95
2017-05-24T07:48:58.270Z,21.89
2017-05-24T07:50:01.238Z,21.85
2017-05-24T07:51:03.589Z,21.83
2017-05-24T07:52:05.962Z,21.83
2017-05-24T07:53:08.316Z,21.85
2017-05-24T07:54:10.673Z,21.83
2017-05-24T07:55:13.627Z,21.83
2017-05-24T07:56:15.984Z,21.89
2017-05-24T07:57:18.342Z,21.83
2017-05-24T07:58:20.699Z,21.89
2017-05-24T07:59:23.058Z,21.89
2017-05-24T08:00:26.019Z,21.85
2017-05-24T08:01:28.381Z,21.85
2017-05-24T08:02:30.740Z,21.92
2017-05-24T08:03:33.100Z,21.91
2017-05-24T08:04:35.455Z,21.89
2017-05-24T08:05:38.421Z,21.89
2017-05-24T08:06:40.776Z,21.89
2017-05-24T08:07:43.146Z,21.91
2017-05-24T08:08:45.496Z,21.93
2017-05-24T08:09:47.856Z,21.95
2017-05-24T08:10:50.916Z,21.92
2017-05-24T08:11:53.276Z,21.87
2017-05-24T08:12:55.632Z,21.80
2017-05-24T08:13:58.041Z,21.85
2017-05-24T08:15:00.346Z,21.91
2017-05-24T08:16:03.309Z,21.99
2017-05-24T08:17:05.665Z,21.92
2017-05-24T08:18:08.025Z,21.92
2017-05-24T08:19:10.387Z,21.75
2017-05-24T08:20:12.745Z,21.85
2017-05-24T08:21:15.699Z,21.91
2017-05-24T08:22:18.055Z,21.87
2017-05-24T08:23:20.430Z,21.95
2017-05-24T08:24:22.797Z,21.89
2017-05-24T08:25:25.145Z,21.91
2017-05-24T08:26:28.104Z,21.92
2017-05-24T08:27:30.461Z,21.80
2017-05-24T08:28:32.825Z,21.83
2017-05-24T08:29:35.181Z,21.89
2017-05-24T08:30:37.536Z,21.91
2017-05-24T08:31:40.503Z,21.89
2017-05-24T08:32:42.857Z,21.87
2017-05-24T08:33:45.219Z,21.85
2017-05-24T08:34:47.583Z,21.92
2017-05-24T08:35:49.949Z,21.91
2017-05-24T08:36:52.993Z,21.93
2017-05-24T08:37:55.352Z,21.91
2017-05-24T08:38:57.717Z,21.83
2017-05-24T08:40:00.074Z,21.95
2017-05-24T08:41:02.429Z,21.91
2017-05-24T08:42:05.492Z,21.89
2017-05-24T08:43:07.849Z,21.85
2017-05-24T08:44:10.201Z,21.83
2017-05-24T08:45:12.561Z,21.87
2017-05-24T08:46:14.929Z,21.89
2017-05-24T08:47:17.882Z,21.83
2017-05-24T08:48:20.242Z,21.83
2017-05-24T08:49:22.599Z,21.89
2017-05-24T08:50:24.965Z,21.82
2017-05-24T08:51:27.332Z,21.87
2017-05-24T08:52:30.284Z,21.82
2017-05-24T08:53:32.639Z,21.91
2017-05-24T08:54:35.011Z,21.83
2017-05-24T08:55:37.363Z,21.83
2017-05-24T08:56:39.731Z,21.93
2017-05-24T08:57:42.787Z,21.85
2017-05-24T08:58:45.145Z,21.89
2017-05-24T08:59:47.504Z,21.89
2017-05-24T09:00:49.865Z,21.89
2017-05-24T09:01:52.222Z,21.89
2017-05-24T09:02:55.230Z,21.82
2017-05-24T09:03:57.590Z,21.83
2017-05-24T09:04:59.954Z,21.87
2017-05-24T09:06:02.314Z,21.83
2017-05-24T09:07:04.669Z,21.91
2017-05-24T09:08:07.632Z,21.92
2017-05-24T09:09:09.999Z,21.89
2017-05-24T09:10:12.351Z,21.91
2017-05-24T09:11:14.718Z,21.83
2017-05-24T09:12:17.069Z,21.83
2017-05-24T09:13:20.128Z,21.87
2017-05-24T09:14:22.489Z,21.85
2017-05-24T09:15:24.839Z,21.83
2017-05-24T09:16:27.208Z,21.87
2017-05-24T09:17:29.564Z,21.87
2017-05-24T09:18:32.625Z,21.91
2017-05-24T09:19:34.981Z,21.91
2017-05-24T09:20:37.348Z,21.82
2017-05-24T09:21:39.699Z,21.93
2017-05-24T09:22:42.057Z,21.85
2017-05-24T09:23:45.018Z,21.83
2017-05-24T09:24:47.382Z,21.89
2017-05-24T09:25:49.744Z,21.87
2017-05-24T09:26:52.105Z,21.89
2017-05-24T09:27:54.464Z,21.87
2017-05-24T09:28:57.363Z,21.87
2017-05-24T09:29:59.727Z,21.89
2017-05-24T09:31:02.085Z,21.95
2017-05-24T09:32:04.446Z,21.91
2017-05-24T09:33:06.802Z,21.85
2017-05-24T09:34:09.855Z,21.89
2017-05-24T09:35:12.212Z,21.89
2017-05-24T09:36:14.570Z,21.82
2017-05-24T09:37:16.931Z,21.83
2017-05-24T09:38:19.286Z,21.99
2017-05-24T09:39:22.237Z,21.85
2017-05-24T09:40:24.602Z,21.91
2017-05-24T09:41:26.961Z,21.87
2017-05-24T09:42:29.314Z,21.89
2017-05-24T09:43:31.667Z,21.79
2017-05-24T09:44:34.621Z,21.85
2017-05-24T09:45:36.997Z,21.89
2017-05-24T09:46:39.351Z,21.87
2017-05-24T09:47:41.714Z,21.89
2017-05-24T09:48:44.061Z,21.85
2017-05-24T09:49:47.025Z,21.89
2017-05-24T09:50:49.379Z,21.82
2017-05-24T09:51:51.734Z,21.82
2017-05-24T09:52:54.302Z,21.85
2017-05-24T09:53:56.660Z,21.82
2017-05-24T09:54:59.613Z,21.92
2017-05-24T09:56:01.982Z,21.89
2017-05-24T09:57:04.332Z,21.89
2017-05-24T09:58:06.691Z,21.83
2017-05-24T09:59:09.049Z,21.89
2017-05-24T10:00:12.105Z,21.89
2017-05-24T10:01:14.473Z,21.80
2017-05-24T10:02:16.829Z,21.83
2017-05-24T10:03:19.185Z,21.87
2017-05-24T10:04:21.549Z,21.93
2017-05-24T10:05:24.508Z,21.80
2017-05-24T10:06:26.871Z,21.85
2017-05-24T10:07:29.225Z,21.79
2017-05-24T10:08:31.592Z,21.93
2017-05-24T10:09:33.945Z,21.83
2017-05-24T10:10:37.006Z,21.87
2017-05-24T10:11:39.367Z,21.93
2017-05-24T10:12:41.726Z,21.82
2017-05-24T10:13:44.087Z,21.85
2017-05-24T10:14:46.438Z,21.85
2017-05-24T10:15:49.396Z,21.80
2017-05-24T10:16:51.757Z,21.92
2017-05-24T10:17:54.115Z,21.85
2017-05-24T10:18:56.471Z,21.87
2017-05-24T10:19:58.828Z,21.99
2017-05-24T10:21:01.879Z,21.92
2017-05-24T10:22:04.235Z,21.92
2017-05-24T10:23:06.598Z,21.93
2017-05-24T10:24:08.957Z,21.91
2017-05-24T10:25:11.313Z,21.80
2017-05-24T10:26:14.275Z,21.82
2017-05-24T10:27:16.631Z,21.87
2017-05-24T10:28:18.993Z,21.82
2017-05-24T10:29:21.349Z,21.77
2017-05-24T10:30:23.704Z,21.91
2017-05-24T10:31:26.758Z,21.89
2017-05-24T10:32:29.116Z,21.76
2017-05-24T10:33:31.475Z,21.83
2017-05-24T10:34:33.831Z,21.85
2017-05-24T10:35:36.192Z,21.89
2017-05-24T10:36:39.250Z,21.85
2017-05-24T10:37:41.617Z,21.83
2017-05-24T10:38:43.966Z,21.77
2017-05-24T10:39:46.322Z,21.87
2017-05-24T10:40:48.681Z,21.79
2017-05-24T10:41:51.733Z,21.77
2017-05-24T10:42:54.084Z,21.80
2017-05-24T10:43:56.439Z,21.85
2017-05-24T10:44:58.794Z,21.77
2017-05-24T10:46:01.152Z,21.79
2017-05-24T10:47:04.211Z,21.80
2017-05-24T10:48:06.565Z,21.82
2017-05-24T10:49:08.921Z,21.70
2017-05-24T10:50:11.293Z,21.79
2017-05-24T10:51:13.635Z,21.75
2017-05-24T10:52:16.598Z,21.85
2017-05-24T10:53:18.957Z,21.80
2017-05-24T10:54:21.309Z,21.79
2017-05-24T10:55:23.660Z,21.80
2017-05-24T10:56:26.014Z,21.76
2017-05-24T10:57:28.968Z,21.82
2017-05-24T10:58:31.318Z,21.80
2017-05-24T10:59:33.676Z,21.80
2017-05-24T11:00:36.037Z,21.76
2017-05-24T11:01:38.398Z,21.79
2017-05-24T11:02:41.448Z,21.77
2017-05-24T11:03:43.863Z,21.80
2017-05-24T11:04:46.165Z,21.76
2017-05-24T11:05:48.523Z,21.80
2017-05-24T11:06:50.877Z,21.80
2017-05-24T11:07:53.828Z,21.80
2017-05-24T11:08:56.186Z,21.79
2017-05-24T11:09:58.551Z,21.80
2017-05-24T11:11:00.901Z,21.79
2017-05-24T11:12:03.256Z,21.80
2017-05-24T11:13:06.313Z,21.77
2017-05-24T11:14:08.668Z,21.76
2017-05-24T11:15:11.034Z,21.82
2017-05-24T11:16:13.389Z,21.77
2017-05-24T11:17:15.747Z,21.82
2017-05-24T11:18:18.809Z,21.80
2017-05-24T11:19:21.165Z,21.80
2017-05-24T11:20:23.513Z,21.87
2017-05-24T11:21:25.866Z,21.80
2017-05-24T11:22:28.227Z,21.87
2017-05-24T11:23:31.177Z,21.76
2017-05-24T11:24:33.540Z,21.77
2017-05-24T11:25:35.884Z,21.80
2017-05-24T11:26:38.244Z,21.83
2017-05-24T11:27:40.604Z,21.80
2017-05-24T11:28:43.559Z,21.76
2017-05-24T11:29:45.915Z,21.79
2017-05-24T11:30:48.265Z,21.80
2017-05-24T11:31:50.620Z,21.83
2017-05-24T11:32:52.990Z,21.92
2017-05-24T11:33:55.944Z,21.93
2017-05-24T11:34:58.300Z,21.82
2017-05-24T11:36:00.654Z,21.95
2017-05-24T11:37:03.012Z,21.83
2017-05-24T11:38:05.367Z,21.75
2017-05-24T11:39:08.429Z,21.73
2017-05-24T11:40:10.783Z,21.89
2017-05-24T11:41:13.151Z,21.85
2017-05-24T11:42:15.515Z,21.83
2017-05-24T11:43:17.861Z,21.83
2017-05-24T11:44:20.821Z,21.83
2017-05-24T11:45:23.182Z,21.80
2017-05-24T11:46:25.535Z,21.76
2017-05-24T11:47:27.889Z,21.96
2017-05-24T11:48:30.251Z,21.73
2017-05-24T11:49:33.212Z,21.85
2017-05-24T11:50:35.565Z,21.76
2017-05-24T11:51:37.919Z,21.89
2017-05-24T11:52:40.290Z,21.79
2017-05-24T11:53:42.636Z,21.83
2017-05-24T11:54:45.704Z,21.79
2017-05-24T11:55:48.066Z,21.89
2017-05-24T11:56:50.414Z,21.82
2017-05-24T11:57:52.771Z,21.82
2017-05-24T11:58:55.127Z,21.80
2017-05-24T11:59:58.089Z,21.80
2017-05-24T12:01:00.450Z,21.80
2017-05-24T12:02:02.804Z,21.82
2017-05-24T12:03:05.159Z,21.79
2017-05-24T12:04:07.518Z,21.89
2017-05-24T12:05:10.480Z,21.77
2017-05-24T12:06:12.827Z,21.87
2017-05-24T12:07:15.190Z,21.82
2017-05-24T12:08:17.554Z,21.75
2017-05-24T12:09:19.919Z,21.77
2017-05-24T12:10:22.878Z,21.87
2017-05-24T12:11:25.230Z,21.83
2017-05-24T12:12:27.586Z,21.91
2017-05-24T12:13:29.938Z,21.80
2017-05-24T12:14:32.305Z,21.87
2017-05-24T12:15:35.261Z,21.89
2017-05-24T12:16:37.623Z,21.89
2017-05-24T12:17:39.986Z,21.87
2017-05-24T12:18:42.380Z,21.87
2017-05-24T12:19:44.728Z,21.83
2017-05-24T12:20:47.689Z,21.99
2017-05-24T12:21:50.053Z,21.89
2017-05-24T12:22:52.408Z,21.85
2017-05-24T12:23:54.771Z,21.87
2017-05-24T12:24:57.147Z,21.87
2017-05-24T12:26:00.414Z,21.89
2017-05-24T12:27:02.775Z,21.89
2017-05-24T12:28:05.140Z,21.85
2017-05-24T12:29:07.492Z,21.89
2017-05-24T12:30:09.848Z,21.89
2017-05-24T12:31:12.807Z,21.95
2017-05-24T12:32:15.169Z,21.93
2017-05-24T12:33:17.534Z,21.91
2017-05-24T12:34:20.106Z,21.85
2017-05-24T12:35:22.472Z,21.85
2017-05-24T12:36:25.434Z,21.93
2017-05-24T12:37:27.794Z,21.91
2017-05-24T12:38:30.156Z,21.95
2017-05-24T12:39:32.516Z,21.89
2017-05-24T12:40:34.885Z,21.89
2017-05-24T12:41:37.794Z,21.87
2017-05-24T12:42:40.154Z,21.85
2017-05-24T12:43:42.514Z,21.93
2017-05-24T12:44:44.875Z,21.93
2017-05-24T12:45:47.235Z,22.00
2017-05-24T12:46:50.200Z,21.99
2017-05-24T12:47:52.554Z,22.02
2017-05-24T12:48:54.918Z,22.04
2017-05-24T12:49:57.281Z,22.04
2017-05-24T12:50:59.629Z,21.96
2017-05-24T12:52:02.695Z,22.02
2017-05-24T12:53:05.071Z,22.02
2017-05-24T12:54:07.428Z,21.98
2017-05-24T12:55:09.787Z,22.00
2017-05-24T12:56:12.146Z,22.07
2017-05-24T12:57:15.103Z,21.98
2017-05-24T12:58:17.469Z,22.02
2017-05-24T12:59:19.825Z,22.06
2017-05-24T13:00:22.192Z,22.11
2017-05-24T13:01:24.550Z,22.22
2017-05-24T13:02:27.612Z,22.18
2017-05-24T13:03:29.969Z,22.13
2017-05-24T13:04:32.330Z,22.25
2017-05-24T13:05:34.695Z,22.30
2017-05-24T13:06:37.060Z,22.29
2017-05-24T13:07:40.123Z,22.28
2017-05-24T13:08:42.481Z,22.25
2017-05-24T13:09:44.838Z,22.26
2017-05-24T13:10:47.199Z,22.28
2017-05-24T13:11:49.559Z,22.28
2017-05-24T13:12:52.621Z,22.33
2017-05-24T13:13:54.982Z,22.32
2017-05-24T13:14:57.352Z,22.36
2017-05-24T13:15:59.718Z,22.33
2017-05-24T13:17:02.082Z,22.29
2017-05-24T13:18:05.141Z,22.41
2017-05-24T13:19:07.504Z,22.36
2017-05-24T13:20:09.863Z,22.26
2017-05-24T13:21:12.222Z,22.29
2017-05-24T13:22:14.610Z,22.35
2017-05-24T13:23:19.455Z,22.25
2017-05-24T13:24:21.813Z,22.26
2017-05-24T13:25:24.174Z,22.38
2017-05-24T13:26:26.533Z,22.35
2017-05-24T13:27:28.900Z,22.44
2017-05-24T13:28:31.946Z,22.41